sensor_id;sensor_type;location;lat;lon;timestamp;pressure;altitude;pressure_sealevel;temperature;humidity
73024;BME280;61199;47.526;8.538;2023-04-23T00:00:05;95991.69;;;14.99;62.29
73024;BME280;61199;47.526;8.538;2023-04-23T00:02:33;95996.34;;;14.89;62.55
73024;BME280;61199;47.526;8.538;2023-04-23T00:05:02;95990.28;;;14.88;62.41
73024;BME280;61199;47.526;8.538;2023-04-23T00:07:32;95985.63;;;14.98;62.22
73024;BME280;61199;47.526;8.538;2023-04-23T00:10:00;95997.53;;;14.78;62.16
73024;BME280;61199;47.526;8.538;2023-04-23T00:12:29;95990.91;;;14.90;61.67
73024;BME280;61199;47.526;8.538;2023-04-23T00:14:55;95985.91;;;15.03;62.58
73024;BME280;61199;47.526;8.538;2023-04-23T00:17:22;95992.78;;;15.12;62.15
73024;BME280;61199;47.526;8.538;2023-04-23T00:19:48;95995.41;;;15.12;62.85
73024;BME280;61199;47.526;8.538;2023-04-23T00:22:15;96000.56;;;15.06;62.85
73024;BME280;61199;47.526;8.538;2023-04-23T00:24:45;96011.31;;;14.50;62.73
73024;BME280;61199;47.526;8.538;2023-04-23T00:27:12;96007.41;;;14.06;64.17
73024;BME280;61199;47.526;8.538;2023-04-23T00:29:38;96002.97;;;13.91;64.67
73024;BME280;61199;47.526;8.538;2023-04-23T00:32:05;96009.22;;;14.06;64.85
73024;BME280;61199;47.526;8.538;2023-04-23T00:34:32;96007.75;;;14.03;65.22
73024;BME280;61199;47.526;8.538;2023-04-23T00:36:59;96013.31;;;14.00;64.75
73024;BME280;61199;47.526;8.538;2023-04-23T00:39:25;96010.69;;;14.16;65.05
73024;BME280;61199;47.526;8.538;2023-04-23T00:41:52;96016.13;;;13.91;65.60
73024;BME280;61199;47.526;8.538;2023-04-23T00:44:18;96023.03;;;13.84;66.04
73024;BME280;61199;47.526;8.538;2023-04-23T00:46:45;96014.63;;;13.64;67.07
73024;BME280;61199;47.526;8.538;2023-04-23T00:49:12;96022.59;;;13.23;68.56
73024;BME280;61199;47.526;8.538;2023-04-23T00:51:39;96019.69;;;13.34;68.87
73024;BME280;61199;47.526;8.538;2023-04-23T00:54:06;96025.28;;;13.39;68.29
73024;BME280;61199;47.526;8.538;2023-04-23T00:56:32;96028.56;;;13.33;68.66
73024;BME280;61199;47.526;8.538;2023-04-23T00:58:59;96027.09;;;13.38;68.35
73024;BME280;61199;47.526;8.538;2023-04-23T01:01:27;96029.38;;;13.33;68.82
73024;BME280;61199;47.526;8.538;2023-04-23T01:03:55;96025.59;;;13.28;68.80
73024;BME280;61199;47.526;8.538;2023-04-23T01:06:22;96030.63;;;13.05;70.30
73024;BME280;61199;47.526;8.538;2023-04-23T01:08:50;96036.44;;;13.25;69.92
73024;BME280;61199;47.526;8.538;2023-04-23T01:11:16;96044.63;;;13.22;69.62
73024;BME280;61199;47.526;8.538;2023-04-23T01:13:43;96036.63;;;13.31;70.00
73024;BME280;61199;47.526;8.538;2023-04-23T01:16:10;96041.63;;;13.09;70.01
73024;BME280;61199;47.526;8.538;2023-04-23T01:18:36;96039.63;;;13.03;70.91
73024;BME280;61199;47.526;8.538;2023-04-23T01:21:04;96043.09;;;13.03;71.29
73024;BME280;61199;47.526;8.538;2023-04-23T01:23:30;96042.09;;;12.96;71.56
73024;BME280;61199;47.526;8.538;2023-04-23T01:25:57;96049.25;;;12.86;71.29
73024;BME280;61199;47.526;8.538;2023-04-23T01:28:24;96046.22;;;12.99;71.66
73024;BME280;61199;47.526;8.538;2023-04-23T01:30:51;96036.50;;;12.99;71.19
73024;BME280;61199;47.526;8.538;2023-04-23T01:33:17;96045.06;;;12.76;72.59
73024;BME280;61199;47.526;8.538;2023-04-23T01:35:44;96041.69;;;12.83;72.28
73024;BME280;61199;47.526;8.538;2023-04-23T01:38:13;96042.53;;;12.92;71.87
73024;BME280;61199;47.526;8.538;2023-04-23T01:40:39;96042.09;;;12.96;72.33
73024;BME280;61199;47.526;8.538;2023-04-23T01:43:06;96047.03;;;12.74;72.31
73024;BME280;61199;47.526;8.538;2023-04-23T01:45:32;96033.97;;;12.90;72.34
73024;BME280;61199;47.526;8.538;2023-04-23T01:47:59;96043.56;;;12.99;72.10
73024;BME280;61199;47.526;8.538;2023-04-23T01:50:26;96041.97;;;13.14;71.24
73024;BME280;61199;47.526;8.538;2023-04-23T01:52:54;96048.28;;;13.29;70.93
73024;BME280;61199;47.526;8.538;2023-04-23T01:55:20;96042.38;;;13.35;70.71
73024;BME280;61199;47.526;8.538;2023-04-23T01:57:48;96042.38;;;13.35;70.50
73024;BME280;61199;47.526;8.538;2023-04-23T02:00:16;96036.38;;;13.09;70.68
73024;BME280;61199;47.526;8.538;2023-04-23T02:02:43;96042.81;;;13.14;71.13
73024;BME280;61199;47.526;8.538;2023-04-23T02:05:15;96042.69;;;13.32;70.56
73024;BME280;61199;47.526;8.538;2023-04-23T02:07:43;96042.16;;;13.12;71.05
73024;BME280;61199;47.526;8.538;2023-04-23T02:10:10;96045.69;;;12.95;72.67
73024;BME280;61199;47.526;8.538;2023-04-23T02:12:37;96049.13;;;12.96;72.13
73024;BME280;61199;47.526;8.538;2023-04-23T02:15:06;96050.22;;;12.85;73.11
73024;BME280;61199;47.526;8.538;2023-04-23T02:17:33;96055.38;;;12.95;72.83
73024;BME280;61199;47.526;8.538;2023-04-23T02:20:01;96045.72;;;12.70;73.77
73024;BME280;61199;47.526;8.538;2023-04-23T02:22:27;96044.16;;;12.59;74.27
73024;BME280;61199;47.526;8.538;2023-04-23T02:24:54;96048.59;;;12.84;73.76
73024;BME280;61199;47.526;8.538;2023-04-23T02:27:20;96050.69;;;12.81;73.90
73024;BME280;61199;47.526;8.538;2023-04-23T02:29:47;96050.56;;;12.57;74.07
73024;BME280;61199;47.526;8.538;2023-04-23T02:32:14;96056.47;;;12.59;74.68
73024;BME280;61199;47.526;8.538;2023-04-23T02:34:40;96050.69;;;12.47;75.41
73024;BME280;61199;47.526;8.538;2023-04-23T02:37:07;96045.75;;;12.52;75.12
73024;BME280;61199;47.526;8.538;2023-04-23T02:39:34;96038.69;;;12.45;75.54
73024;BME280;61199;47.526;8.538;2023-04-23T02:42:00;96035.25;;;12.78;75.07
73024;BME280;61199;47.526;8.538;2023-04-23T02:44:27;96035.03;;;13.05;74.33
73024;BME280;61199;47.526;8.538;2023-04-23T02:46:53;96042.00;;;13.22;72.97
73024;BME280;61199;47.526;8.538;2023-04-23T02:49:19;96038.38;;;13.23;72.73
73024;BME280;61199;47.526;8.538;2023-04-23T02:51:46;96039.56;;;13.36;72.74
73024;BME280;61199;47.526;8.538;2023-04-23T02:54:13;96045.16;;;13.33;72.78
73024;BME280;61199;47.526;8.538;2023-04-23T02:56:39;96041.69;;;13.25;73.63
73024;BME280;61199;47.526;8.538;2023-04-23T02:59:06;96038.47;;;12.97;74.35
73024;BME280;61199;47.526;8.538;2023-04-23T03:01:33;96036.88;;;12.79;75.16
73024;BME280;61199;47.526;8.538;2023-04-23T03:04:00;96048.03;;;12.73;76.02
73024;BME280;61199;47.526;8.538;2023-04-23T03:06:26;96037.41;;;12.90;75.78
73024;BME280;61199;47.526;8.538;2023-04-23T03:08:53;96037.75;;;12.87;76.25
73024;BME280;61199;47.526;8.538;2023-04-23T03:11:19;96037.22;;;12.84;76.70
73024;BME280;61199;47.526;8.538;2023-04-23T03:13:46;96041.47;;;13.02;76.25
73024;BME280;61199;47.526;8.538;2023-04-23T03:16:12;96032.41;;;13.05;75.85
73024;BME280;61199;47.526;8.538;2023-04-23T03:18:39;96025.84;;;13.01;75.83
73024;BME280;61199;47.526;8.538;2023-04-23T03:21:05;96030.78;;;13.12;75.04
73024;BME280;61199;47.526;8.538;2023-04-23T03:23:32;96025.34;;;13.05;75.96
73024;BME280;61199;47.526;8.538;2023-04-23T03:25:58;96027.69;;;13.16;75.55
73024;BME280;61199;47.526;8.538;2023-04-23T03:28:24;96018.47;;;13.12;75.99
73024;BME280;61199;47.526;8.538;2023-04-23T03:30:51;96026.81;;;13.00;76.41
73024;BME280;61199;47.526;8.538;2023-04-23T03:33:17;96025.69;;;12.77;77.42
73024;BME280;61199;47.526;8.538;2023-04-23T03:35:44;96032.25;;;12.73;78.11
73024;BME280;61199;47.526;8.538;2023-04-23T03:38:10;96023.91;;;12.77;78.27
73024;BME280;61199;47.526;8.538;2023-04-23T03:40:37;96032.44;;;12.79;77.98
73024;BME280;61199;47.526;8.538;2023-04-23T03:43:03;96025.88;;;12.75;77.90
73024;BME280;61199;47.526;8.538;2023-04-23T03:45:29;96029.25;;;12.60;78.64
73024;BME280;61199;47.526;8.538;2023-04-23T03:47:56;96035.13;;;12.54;79.03
73024;BME280;61199;47.526;8.538;2023-04-23T03:50:22;96030.25;;;12.67;78.87
73024;BME280;61199;47.526;8.538;2023-04-23T03:52:51;96035.97;;;12.96;77.63
73024;BME280;61199;47.526;8.538;2023-04-23T03:55:17;96030.72;;;12.96;77.63
73024;BME280;61199;47.526;8.538;2023-04-23T03:57:45;96040.19;;;13.14;76.80
73024;BME280;61199;47.526;8.538;2023-04-23T04:00:12;96037.66;;;12.97;77.11
73024;BME280;61199;47.526;8.538;2023-04-23T04:02:39;96041.09;;;12.97;77.61
73024;BME280;61199;47.526;8.538;2023-04-23T04:05:06;96040.28;;;12.97;77.59
73024;BME280;61199;47.526;8.538;2023-04-23T04:07:34;96039.31;;;12.72;78.55
73024;BME280;61199;47.526;8.538;2023-04-23T04:10:04;96037.41;;;12.57;79.02
73024;BME280;61199;47.526;8.538;2023-04-23T04:12:30;96024.81;;;12.35;80.19
73024;BME280;61199;47.526;8.538;2023-04-23T04:14:57;96026.63;;;12.60;79.98
73024;BME280;61199;47.526;8.538;2023-04-23T04:17:23;96015.72;;;12.88;79.06
73024;BME280;61199;47.526;8.538;2023-04-23T04:19:50;96027.84;;;13.07;78.33
73024;BME280;61199;47.526;8.538;2023-04-23T04:22:16;96021.28;;;13.19;77.75
73024;BME280;61199;47.526;8.538;2023-04-23T04:24:43;96017.06;;;13.34;77.36
73024;BME280;61199;47.526;8.538;2023-04-23T04:27:13;96010.16;;;13.41;76.52
73024;BME280;61199;47.526;8.538;2023-04-23T04:29:40;96006.53;;;13.50;76.45
73024;BME280;61199;47.526;8.538;2023-04-23T04:32:10;96010.50;;;13.54;75.97
73024;BME280;61199;47.526;8.538;2023-04-23T04:34:36;96019.22;;;13.62;75.67
73024;BME280;61199;47.526;8.538;2023-04-23T04:37:03;96011.50;;;13.69;75.60
73024;BME280;61199;47.526;8.538;2023-04-23T04:39:30;96024.16;;;13.73;74.92
73024;BME280;61199;47.526;8.538;2023-04-23T04:41:56;96019.41;;;13.77;75.03
73024;BME280;61199;47.526;8.538;2023-04-23T04:44:25;96028.28;;;13.68;75.21
73024;BME280;61199;47.526;8.538;2023-04-23T04:46:51;96022.88;;;13.69;75.41
73024;BME280;61199;47.526;8.538;2023-04-23T04:49:17;96017.75;;;13.76;75.11
73024;BME280;61199;47.526;8.538;2023-04-23T04:51:44;96016.28;;;13.73;75.24
73024;BME280;61199;47.526;8.538;2023-04-23T04:54:11;96011.50;;;13.53;75.84
73024;BME280;61199;47.526;8.538;2023-04-23T04:56:37;96013.97;;;13.62;75.73
73024;BME280;61199;47.526;8.538;2023-04-23T04:59:04;96008.22;;;13.75;75.35
73024;BME280;61199;47.526;8.538;2023-04-23T05:01:32;96011.84;;;13.74;75.41
73024;BME280;61199;47.526;8.538;2023-04-23T05:03:58;96016.13;;;13.75;75.69
73024;BME280;61199;47.526;8.538;2023-04-23T05:06:25;96019.59;;;13.75;75.66
73024;BME280;61199;47.526;8.538;2023-04-23T05:08:53;96025.66;;;13.84;75.13
73024;BME280;61199;47.526;8.538;2023-04-23T05:11:20;96027.50;;;13.83;75.02
73024;BME280;61199;47.526;8.538;2023-04-23T05:13:47;96023.53;;;13.71;75.14
73024;BME280;61199;47.526;8.538;2023-04-23T05:16:13;96020.97;;;13.30;75.94
73024;BME280;61199;47.526;8.538;2023-04-23T05:18:40;96013.09;;;13.30;77.09
73024;BME280;61199;47.526;8.538;2023-04-23T05:21:07;96002.56;;;13.30;76.93
73024;BME280;61199;47.526;8.538;2023-04-23T05:23:34;96011.13;;;13.32;77.36
73024;BME280;61199;47.526;8.538;2023-04-23T05:26:00;96001.47;;;13.48;76.86
73024;BME280;61199;47.526;8.538;2023-04-23T05:28:29;96016.78;;;13.61;76.05
73024;BME280;61199;47.526;8.538;2023-04-23T05:30:56;96019.91;;;13.56;75.74
73024;BME280;61199;47.526;8.538;2023-04-23T05:33:23;96018.00;;;13.17;76.50
73024;BME280;61199;47.526;8.538;2023-04-23T05:35:58;96020.31;;;12.86;78.08
73024;BME280;61199;47.526;8.538;2023-04-23T05:38:24;96021.63;;;12.90;78.53
73024;BME280;61199;47.526;8.538;2023-04-23T05:40:51;96013.25;;;12.79;78.98
73024;BME280;61199;47.526;8.538;2023-04-23T05:43:17;96017.16;;;12.75;79.00
73024;BME280;61199;47.526;8.538;2023-04-23T05:45:44;96016.09;;;12.60;79.27
73024;BME280;61199;47.526;8.538;2023-04-23T05:48:10;96013.53;;;12.42;80.37
73024;BME280;61199;47.526;8.538;2023-04-23T05:50:37;96016.69;;;12.46;81.09
73024;BME280;61199;47.526;8.538;2023-04-23T05:53:03;96013.72;;;12.74;79.84
73024;BME280;61199;47.526;8.538;2023-04-23T05:55:29;96019.50;;;12.86;79.19
73024;BME280;61199;47.526;8.538;2023-04-23T05:57:56;96014.75;;;12.89;78.99
73024;BME280;61199;47.526;8.538;2023-04-23T06:00:22;96027.06;;;12.89;79.20
73024;BME280;61199;47.526;8.538;2023-04-23T06:02:48;96021.13;;;12.79;79.59
73024;BME280;61199;47.526;8.538;2023-04-23T06:05:15;96014.28;;;12.94;79.12
73024;BME280;61199;47.526;8.538;2023-04-23T06:07:42;96025.72;;;13.10;78.36
73024;BME280;61199;47.526;8.538;2023-04-23T06:10:08;96023.56;;;13.14;78.17
73024;BME280;61199;47.526;8.538;2023-04-23T06:12:37;96024.53;;;13.13;78.19
73024;BME280;61199;47.526;8.538;2023-04-23T06:15:05;96018.44;;;13.04;78.90
73024;BME280;61199;47.526;8.538;2023-04-23T06:17:32;96025.72;;;13.18;78.25
73024;BME280;61199;47.526;8.538;2023-04-23T06:19:58;96020.16;;;13.21;77.94
73024;BME280;61199;47.526;8.538;2023-04-23T06:22:25;96020.50;;;13.34;77.78
73024;BME280;61199;47.526;8.538;2023-04-23T06:24:51;96013.78;;;13.48;77.37
73024;BME280;61199;47.526;8.538;2023-04-23T06:27:17;96011.63;;;13.43;77.59
73024;BME280;61199;47.526;8.538;2023-04-23T06:29:44;96005.25;;;13.54;76.99
73024;BME280;61199;47.526;8.538;2023-04-23T06:32:10;95992.25;;;13.60;76.81
73024;BME280;61199;47.526;8.538;2023-04-23T06:34:37;95984.53;;;13.75;76.61
73024;BME280;61199;47.526;8.538;2023-04-23T06:37:15;95979.78;;;13.86;76.30
73024;BME280;61199;47.526;8.538;2023-04-23T06:39:41;95982.25;;;13.88;76.65
73024;BME280;61199;47.526;8.538;2023-04-23T06:42:07;95979.59;;;13.96;76.16
73024;BME280;61199;47.526;8.538;2023-04-23T06:44:34;95982.91;;;13.98;75.94
73024;BME280;61199;47.526;8.538;2023-04-23T06:47:00;95973.81;;;14.00;75.62
73024;BME280;61199;47.526;8.538;2023-04-23T06:49:27;95982.56;;;13.93;75.81
73024;BME280;61199;47.526;8.538;2023-04-23T06:51:53;95972.53;;;13.88;75.74
73024;BME280;61199;47.526;8.538;2023-04-23T06:54:22;95974.81;;;13.99;75.90
73024;BME280;61199;47.526;8.538;2023-04-23T06:56:49;95972.19;;;13.91;76.28
73024;BME280;61199;47.526;8.538;2023-04-23T06:59:16;95966.75;;;13.85;76.45
73024;BME280;61199;47.526;8.538;2023-04-23T07:01:42;95963.47;;;13.83;76.58
73024;BME280;61199;47.526;8.538;2023-04-23T07:04:09;95959.84;;;13.68;76.97
73024;BME280;61199;47.526;8.538;2023-04-23T07:06:35;95961.41;;;13.05;78.86
73024;BME280;61199;47.526;8.538;2023-04-23T07:09:01;95961.09;;;13.00;80.28
73024;BME280;61199;47.526;8.538;2023-04-23T07:11:28;95955.38;;;13.20;79.77
73024;BME280;61199;47.526;8.538;2023-04-23T07:13:57;95956.22;;;13.29;78.81
73024;BME280;61199;47.526;8.538;2023-04-23T07:16:23;95947.34;;;13.30;78.38
73024;BME280;61199;47.526;8.538;2023-04-23T07:18:50;95940.63;;;13.51;77.64
73024;BME280;61199;47.526;8.538;2023-04-23T07:21:17;95940.94;;;13.72;77.22
73024;BME280;61199;47.526;8.538;2023-04-23T07:23:43;95930.53;;;13.87;76.33
73024;BME280;61199;47.526;8.538;2023-04-23T07:26:09;95921.97;;;14.09;75.95
73024;BME280;61199;47.526;8.538;2023-04-23T07:28:36;95933.16;;;14.27;75.18
73024;BME280;61199;47.526;8.538;2023-04-23T07:31:03;95929.19;;;14.31;74.79
73024;BME280;61199;47.526;8.538;2023-04-23T07:33:29;95931.13;;;14.45;74.07
73024;BME280;61199;47.526;8.538;2023-04-23T07:35:56;95934.44;;;14.31;73.88
73024;BME280;61199;47.526;8.538;2023-04-23T07:38:22;95933.81;;;14.29;73.92
73024;BME280;61199;47.526;8.538;2023-04-23T07:40:48;95933.41;;;14.48;73.39
73024;BME280;61199;47.526;8.538;2023-04-23T07:43:15;95936.69;;;14.50;73.88
73024;BME280;61199;47.526;8.538;2023-04-23T07:45:42;95928.09;;;14.64;73.08
73024;BME280;61199;47.526;8.538;2023-04-23T07:48:08;95929.38;;;14.68;73.05
73024;BME280;61199;47.526;8.538;2023-04-23T07:50:34;95928.09;;;14.64;72.91
73024;BME280;61199;47.526;8.538;2023-04-23T07:53:01;95929.09;;;14.55;73.43
73024;BME280;61199;47.526;8.538;2023-04-23T07:55:27;95930.09;;;14.54;73.50
73024;BME280;61199;47.526;8.538;2023-04-23T07:57:53;95926.13;;;14.58;73.19
73024;BME280;61199;47.526;8.538;2023-04-23T08:00:20;95924.38;;;14.80;73.01
73024;BME280;61199;47.526;8.538;2023-04-23T08:02:46;95922.63;;;14.95;72.80
73024;BME280;61199;47.526;8.538;2023-04-23T08:05:13;95926.19;;;14.80;72.67
73024;BME280;61199;47.526;8.538;2023-04-23T08:07:39;95919.22;;;14.87;73.31
73024;BME280;61199;47.526;8.538;2023-04-23T08:10:06;95917.69;;;15.00;72.57
73024;BME280;61199;47.526;8.538;2023-04-23T08:12:33;95914.34;;;15.06;71.61
73024;BME280;61199;47.526;8.538;2023-04-23T08:15:02;95918.22;;;15.18;71.08
73024;BME280;61199;47.526;8.538;2023-04-23T08:17:29;95916.31;;;15.04;70.94
73024;BME280;61199;47.526;8.538;2023-04-23T08:19:55;95915.34;;;14.37;70.83
73024;BME280;61199;47.526;8.538;2023-04-23T08:22:21;95905.53;;;13.99;71.66
73024;BME280;61199;47.526;8.538;2023-04-23T08:24:49;95905.34;;;14.08;72.02
73024;BME280;61199;47.526;8.538;2023-04-23T08:27:15;95909.41;;;14.43;70.92
73024;BME280;61199;47.526;8.538;2023-04-23T08:29:42;95911.91;;;14.67;70.34
73024;BME280;61199;47.526;8.538;2023-04-23T08:32:08;95900.75;;;14.57;70.23
73024;BME280;61199;47.526;8.538;2023-04-23T08:34:35;95902.53;;;14.64;70.35
73024;BME280;61199;47.526;8.538;2023-04-23T08:37:01;95908.69;;;14.87;69.98
73024;BME280;61199;47.526;8.538;2023-04-23T08:39:28;95906.72;;;15.11;69.79
73024;BME280;61199;47.526;8.538;2023-04-23T08:42:09;95904.47;;;15.31;69.01
73024;BME280;61199;47.526;8.538;2023-04-23T08:44:37;95901.69;;;15.47;68.77
73024;BME280;61199;47.526;8.538;2023-04-23T08:47:06;95899.66;;;15.57;67.77
73024;BME280;61199;47.526;8.538;2023-04-23T08:49:36;95904.78;;;15.28;66.15
73024;BME280;61199;47.526;8.538;2023-04-23T08:52:15;95904.97;;;15.34;66.53
73024;BME280;61199;47.526;8.538;2023-04-23T08:54:47;95891.09;;;15.32;65.71
73024;BME280;61199;47.526;8.538;2023-04-23T08:57:16;95895.41;;;15.33;65.97
73024;BME280;61199;47.526;8.538;2023-04-23T08:59:44;95885.31;;;15.51;65.59
73024;BME280;61199;47.526;8.538;2023-04-23T09:02:12;95884.56;;;15.65;65.32
73024;BME280;61199;47.526;8.538;2023-04-23T09:04:41;95883.41;;;15.68;65.74
73024;BME280;61199;47.526;8.538;2023-04-23T09:07:07;95885.22;;;15.82;66.54
73024;BME280;61199;47.526;8.538;2023-04-23T09:09:37;95889.53;;;15.60;65.41
73024;BME280;61199;47.526;8.538;2023-04-23T09:12:05;95887.06;;;15.44;65.69
73024;BME280;61199;47.526;8.538;2023-04-23T09:14:33;95882.53;;;15.30;65.95
73024;BME280;61199;47.526;8.538;2023-04-23T09:17:01;95884.16;;;14.78;67.72
73024;BME280;61199;47.526;8.538;2023-04-23T09:19:28;95872.78;;;14.48;68.10
73024;BME280;61199;47.526;8.538;2023-04-23T09:21:55;95868.34;;;14.78;67.71
73024;BME280;61199;47.526;8.538;2023-04-23T09:24:22;95859.69;;;15.15;67.41
73024;BME280;61199;47.526;8.538;2023-04-23T09:26:49;95858.13;;;15.06;65.94
73024;BME280;61199;47.526;8.538;2023-04-23T09:29:18;95854.91;;;14.96;67.15
73024;BME280;61199;47.526;8.538;2023-04-23T09:31:46;95855.00;;;14.80;66.48
73024;BME280;61199;47.526;8.538;2023-04-23T09:34:22;95844.09;;;14.61;67.24
73024;BME280;61199;47.526;8.538;2023-04-23T09:36:51;95841.06;;;14.94;66.41
73024;BME280;61199;47.526;8.538;2023-04-23T09:39:20;95843.22;;;14.90;66.20
73024;BME280;61199;47.526;8.538;2023-04-23T09:41:50;95829.78;;;15.00;66.01
73024;BME280;61199;47.526;8.538;2023-04-23T09:44:18;95816.22;;;15.33;65.73
73024;BME280;61199;47.526;8.538;2023-04-23T09:46:47;95812.25;;;15.66;64.96
73024;BME280;61199;47.526;8.538;2023-04-23T09:49:14;95814.84;;;15.74;64.54
73024;BME280;61199;47.526;8.538;2023-04-23T09:51:45;95812.81;;;15.76;63.71
73024;BME280;61199;47.526;8.538;2023-04-23T09:54:14;95810.63;;;15.65;63.58
73024;BME280;61199;47.526;8.538;2023-04-23T09:56:42;95800.69;;;15.67;63.86
73024;BME280;61199;47.526;8.538;2023-04-23T09:59:19;95800.53;;;15.98;63.77
73024;BME280;61199;47.526;8.538;2023-04-23T10:01:55;95793.75;;;16.24;63.40
73024;BME280;61199;47.526;8.538;2023-04-23T10:04:24;95803.53;;;16.38;63.43
73024;BME280;61199;47.526;8.538;2023-04-23T10:06:56;95810.19;;;16.34;62.48
73024;BME280;61199;47.526;8.538;2023-04-23T10:09:42;95807.69;;;15.60;63.92
73024;BME280;61199;47.526;8.538;2023-04-23T10:12:09;95807.06;;;15.58;65.08
73024;BME280;61199;47.526;8.538;2023-04-23T10:14:56;95808.91;;;15.87;64.28
73024;BME280;61199;47.526;8.538;2023-04-23T10:17:24;95801.25;;;15.77;62.06
73024;BME280;61199;47.526;8.538;2023-04-23T10:19:53;95796.06;;;15.69;62.61
73024;BME280;61199;47.526;8.538;2023-04-23T10:22:21;95778.88;;;15.73;63.41
73024;BME280;61199;47.526;8.538;2023-04-23T10:24:52;95781.59;;;15.80;63.50
73024;BME280;61199;47.526;8.538;2023-04-23T10:27:22;95776.13;;;15.96;62.80
73024;BME280;61199;47.526;8.538;2023-04-23T10:30:11;95785.69;;;16.11;63.54
73024;BME280;61199;47.526;8.538;2023-04-23T10:32:40;95788.84;;;16.21;61.81
73024;BME280;61199;47.526;8.538;2023-04-23T10:35:07;95780.13;;;15.77;63.26
73024;BME280;61199;47.526;8.538;2023-04-23T10:37:35;95779.13;;;15.78;63.56
73024;BME280;61199;47.526;8.538;2023-04-23T10:40:06;95783.75;;;16.05;63.08
73024;BME280;61199;47.526;8.538;2023-04-23T10:42:34;95793.44;;;15.98;61.93
73024;BME280;61199;47.526;8.538;2023-04-23T10:45:01;95791.50;;;16.07;62.42
73024;BME280;61199;47.526;8.538;2023-04-23T10:47:49;95779.25;;;16.49;61.77
73024;BME280;61199;47.526;8.538;2023-04-23T10:50:27;95767.16;;;16.76;61.35
73024;BME280;61199;47.526;8.538;2023-04-23T10:52:54;95772.88;;;17.00;60.92
73024;BME280;61199;47.526;8.538;2023-04-23T10:55:24;95775.41;;;17.08;61.25
73024;BME280;61199;47.526;8.538;2023-04-23T10:57:58;95776.41;;;17.28;59.71
73024;BME280;61199;47.526;8.538;2023-04-23T11:03:27;95751.28;;;17.73;57.82
73024;BME280;61199;47.526;8.538;2023-04-23T11:05:54;95756.38;;;17.74;57.71
73024;BME280;61199;47.526;8.538;2023-04-23T11:08:21;95751.56;;;17.84;57.41
73024;BME280;61199;47.526;8.538;2023-04-23T11:10:54;95743.31;;;17.73;56.83
73024;BME280;61199;47.526;8.538;2023-04-23T11:13:23;95742.13;;;17.20;58.38
73024;BME280;61199;47.526;8.538;2023-04-23T11:16:12;95738.72;;;17.05;58.31
73024;BME280;61199;47.526;8.538;2023-04-23T11:19:01;95739.22;;;17.15;58.36
73024;BME280;61199;47.526;8.538;2023-04-23T11:22:00;95734.16;;;17.41;58.59
73024;BME280;61199;47.526;8.538;2023-04-23T11:24:34;95734.72;;;17.64;57.56
73024;BME280;61199;47.526;8.538;2023-04-23T11:27:13;95730.97;;;17.86;57.43
73024;BME280;61199;47.526;8.538;2023-04-23T11:29:41;95729.22;;;17.99;56.84
73024;BME280;61199;47.526;8.538;2023-04-23T11:32:09;95719.34;;;18.27;56.13
73024;BME280;61199;47.526;8.538;2023-04-23T11:34:39;95722.69;;;18.02;55.34
73024;BME280;61199;47.526;8.538;2023-04-23T11:37:09;95719.03;;;18.03;55.34
73024;BME280;61199;47.526;8.538;2023-04-23T11:39:36;95721.34;;;18.12;55.74
73024;BME280;61199;47.526;8.538;2023-04-23T11:42:03;95719.56;;;18.26;55.42
73024;BME280;61199;47.526;8.538;2023-04-23T11:44:31;95704.97;;;18.49;55.04
73024;BME280;61199;47.526;8.538;2023-04-23T11:47:00;95703.34;;;18.68;54.58
73024;BME280;61199;47.526;8.538;2023-04-23T11:49:27;95699.44;;;18.57;53.61
73024;BME280;61199;47.526;8.538;2023-04-23T11:51:54;95695.63;;;18.73;53.04
73024;BME280;61199;47.526;8.538;2023-04-23T11:54:24;95708.25;;;18.71;53.77
73024;BME280;61199;47.526;8.538;2023-04-23T11:56:53;95704.56;;;18.59;54.07
73024;BME280;61199;47.526;8.538;2023-04-23T11:59:20;95700.94;;;18.73;54.62
73024;BME280;61199;47.526;8.538;2023-04-23T12:01:50;95697.25;;;18.87;54.03
73024;BME280;61199;47.526;8.538;2023-04-23T12:04:22;95691.97;;;19.13;53.39
73024;BME280;61199;47.526;8.538;2023-04-23T12:06:50;95689.94;;;19.34;52.83
73024;BME280;61199;47.526;8.538;2023-04-23T12:09:18;95686.25;;;19.42;52.49
73024;BME280;61199;47.526;8.538;2023-04-23T12:11:45;95675.16;;;19.64;52.19
73024;BME280;61199;47.526;8.538;2023-04-23T12:14:13;95676.19;;;19.76;51.64
73024;BME280;61199;47.526;8.538;2023-04-23T12:16:43;95664.88;;;19.87;51.21
73024;BME280;61199;47.526;8.538;2023-04-23T12:19:14;95661.56;;;20.05;50.99
73024;BME280;61199;47.526;8.538;2023-04-23T12:21:55;95658.91;;;20.05;50.35
73024;BME280;61199;47.526;8.538;2023-04-23T12:24:27;95646.75;;;20.22;50.04
73024;BME280;61199;47.526;8.538;2023-04-23T12:26:58;95648.75;;;20.33;50.24
73024;BME280;61199;47.526;8.538;2023-04-23T12:29:28;95641.88;;;20.50;49.79
73024;BME280;61199;47.526;8.538;2023-04-23T12:31:58;95642.81;;;20.62;48.79
73024;BME280;61199;47.526;8.538;2023-04-23T12:34:24;95633.41;;;20.66;48.71
73024;BME280;61199;47.526;8.538;2023-04-23T12:36:53;95634.16;;;20.73;48.21
73024;BME280;61199;47.526;8.538;2023-04-23T12:39:32;95629.34;;;20.88;47.92
73024;BME280;61199;47.526;8.538;2023-04-23T12:42:01;95628.44;;;21.00;47.43
73024;BME280;61199;47.526;8.538;2023-04-23T12:44:34;95622.47;;;21.05;47.51
73024;BME280;61199;47.526;8.538;2023-04-23T12:47:05;95617.63;;;20.95;47.49
73024;BME280;61199;47.526;8.538;2023-04-23T12:49:34;95618.28;;;21.15;47.12
73024;BME280;61199;47.526;8.538;2023-04-23T12:52:02;95611.66;;;21.17;47.53
73024;BME280;61199;47.526;8.538;2023-04-23T12:54:33;95618.13;;;21.28;47.49
73024;BME280;61199;47.526;8.538;2023-04-23T12:57:02;95607.41;;;21.34;46.56
73024;BME280;61199;47.526;8.538;2023-04-23T12:59:30;95603.88;;;21.40;46.28
73024;BME280;61199;47.526;8.538;2023-04-23T13:01:57;95608.75;;;21.61;46.42
73024;BME280;61199;47.526;8.538;2023-04-23T13:04:29;95606.69;;;21.27;45.49
73024;BME280;61199;47.526;8.538;2023-04-23T13:06:55;95591.25;;;20.32;46.88